createdAt,value
2023-05-17T00:01:56.738Z,5.80
2023-05-17T00:04:23.933Z,6.68
2023-05-17T00:06:51.504Z,7.50
2023-05-17T00:09:18.691Z,5.97
2023-05-17T00:11:46.016Z,5.55
2023-05-17T00:14:13.867Z,6.90
2023-05-17T00:16:59.963Z,6.63
2023-05-17T00:19:27.064Z,7.47
2023-05-17T00:21:54.204Z,6.18
2023-05-17T00:24:21.244Z,6.53
2023-05-17T00:26:48.373Z,5.47
2023-05-17T00:29:15.691Z,5.45
2023-05-17T00:31:42.976Z,6.13
2023-05-17T00:34:10.293Z,6.80
2023-05-17T00:36:37.774Z,4.60
2023-05-17T00:39:04.811Z,5.47
2023-05-17T00:41:31.940Z,5.18
2023-05-17T00:43:59.024Z,5.80
2023-05-17T00:46:26.366Z,5.22
2023-05-17T00:48:54.434Z,5.28
2023-05-17T00:51:22.807Z,6.90
2023-05-17T00:53:50.741Z,6.85
2023-05-17T00:56:18.378Z,6.35
2023-05-17T00:58:46.830Z,5.70
2023-05-17T01:01:14.017Z,4.78
2023-05-17T01:03:46.549Z,5.40
2023-05-17T01:06:14.514Z,7.80
2023-05-17T01:08:42.460Z,6.72
2023-05-17T01:11:15.038Z,4.88
2023-05-17T01:14:01.374Z,5.60
2023-05-17T01:16:37.439Z,6.63
2023-05-17T01:19:23.313Z,5.40
2023-05-17T01:22:15.993Z,8.05
2023-05-17T01:25:01.366Z,7.10
2023-05-17T01:27:30.089Z,6.82
2023-05-17T01:29:58.178Z,6.30
2023-05-17T01:32:26.202Z,6.55
2023-05-17T01:34:53.523Z,7.50
2023-05-17T01:37:20.602Z,4.90
2023-05-17T01:39:48.003Z,6.03
2023-05-17T01:42:22.426Z,6.05
2023-05-17T01:45:11.618Z,7.05
2023-05-17T01:48:11.933Z,8.05
2023-05-17T01:50:41.125Z,7.03
2023-05-17T01:53:11.845Z,5.55
2023-05-17T01:56:20.662Z,7.97
2023-05-17T01:58:49.077Z,5.90
2023-05-17T02:01:18.442Z,7.80
2023-05-17T02:03:49.976Z,11.60
2023-05-17T02:06:17.863Z,8.10
2023-05-17T02:08:44.962Z,8.93
2023-05-17T02:11:12.947Z,9.02
2023-05-17T02:13:40.629Z,5.93
2023-05-17T02:16:09.137Z,6.35
2023-05-17T02:18:38.012Z,5.38
2023-05-17T02:21:05.468Z,6.50
2023-05-17T02:23:32.621Z,7.20
2023-05-17T02:25:59.671Z,8.43
2023-05-17T02:28:28.027Z,6.63
2023-05-17T02:30:56.651Z,6.43
2023-05-17T02:33:23.926Z,6.25
2023-05-17T02:35:51.267Z,5.57
2023-05-17T02:38:20.345Z,6.50
2023-05-17T02:40:47.559Z,5.20
2023-05-17T02:43:14.659Z,6.40
2023-05-17T02:45:44.043Z,7.10
2023-05-17T02:48:14.113Z,6.53
2023-05-17T02:50:41.310Z,6.70
2023-05-17T02:53:08.428Z,7.63
2023-05-17T02:55:35.834Z,5.68
2023-05-17T02:58:03.986Z,7.68
2023-05-17T03:00:32.149Z,6.97
2023-05-17T03:02:59.364Z,8.27
2023-05-17T03:05:26.643Z,6.57
2023-05-17T03:07:54.034Z,5.97
2023-05-17T03:10:21.116Z,5.82
2023-05-17T03:12:48.925Z,8.75
2023-05-17T03:15:18.973Z,6.25
2023-05-17T03:17:46.794Z,6.00
2023-05-17T03:20:15.574Z,6.93
2023-05-17T03:22:43.496Z,6.47
2023-05-17T03:25:10.601Z,6.40
2023-05-17T03:27:38.058Z,6.55
2023-05-17T03:30:06.508Z,5.38
2023-05-17T03:32:35.687Z,7.82
2023-05-17T03:35:02.925Z,6.25
2023-05-17T03:37:31.367Z,6.35
2023-05-17T03:39:58.678Z,8.25
2023-05-17T03:42:25.782Z,5.60
2023-05-17T03:44:52.923Z,6.18
2023-05-17T03:47:24.029Z,7.38
2023-05-17T03:49:51.562Z,7.45
2023-05-17T03:52:18.850Z,6.32
2023-05-17T03:54:48.167Z,7.45
2023-05-17T03:57:16.501Z,7.30
2023-05-17T03:59:43.628Z,7.22
2023-05-17T04:02:11.041Z,9.05
2023-05-17T04:04:38.558Z,8.85
2023-05-17T04:07:05.664Z,6.55
2023-05-17T04:09:35.166Z,5.70
2023-05-17T04:12:02.478Z,5.70
2023-05-17T04:14:30.164Z,9.18
2023-05-17T04:16:58.570Z,7.10
2023-05-17T04:19:26.051Z,6.13
2023-05-17T04:21:53.276Z,5.45
2023-05-17T04:24:23.223Z,6.47
2023-05-17T04:26:50.614Z,7.18
2023-05-17T04:29:19.618Z,7.47
2023-05-17T04:31:49.129Z,4.72
2023-05-17T04:34:18.080Z,9.55
2023-05-17T04:36:45.694Z,6.85
2023-05-17T04:39:12.857Z,4.75
2023-05-17T04:41:40.631Z,8.80
2023-05-17T04:44:11.400Z,8.02
2023-05-17T04:46:38.658Z,6.60
2023-05-17T04:49:07.627Z,5.53
2023-05-17T04:51:35.008Z,7.10
2023-05-17T04:54:06.954Z,6.07
2023-05-17T04:56:36.660Z,7.88
2023-05-17T04:59:07.379Z,6.43
2023-05-17T05:01:35.518Z,5.95
2023-05-17T05:04:07.365Z,6.18
2023-05-17T05:06:40.948Z,7.72
2023-05-17T05:09:08.868Z,5.43
2023-05-17T05:11:37.812Z,6.75
2023-05-17T05:14:06.172Z,6.18
2023-05-17T05:16:33.847Z,9.60
2023-05-17T05:19:01.452Z,7.47
2023-05-17T05:21:29.558Z,9.15
2023-05-17T05:23:57.144Z,6.35
2023-05-17T05:26:24.280Z,9.45
2023-05-17T05:28:52.140Z,9.05
2023-05-17T05:31:19.307Z,6.88
2023-05-17T05:33:52.195Z,6.75
2023-05-17T05:36:19.549Z,9.35
2023-05-17T05:38:48.711Z,5.55
2023-05-17T05:41:16.752Z,6.60
2023-05-17T05:43:44.086Z,6.85
2023-05-17T05:46:11.567Z,8.50
2023-05-17T05:48:41.979Z,4.40
2023-05-17T05:51:09.833Z,5.38
2023-05-17T05:53:40.774Z,4.70
2023-05-17T05:56:08.154Z,4.85
2023-05-17T05:58:35.240Z,4.95
2023-05-17T06:01:06.158Z,5.57
2023-05-17T06:03:33.696Z,5.88
2023-05-17T06:06:00.965Z,4.80
2023-05-17T06:08:28.293Z,5.00
2023-05-17T06:10:55.577Z,6.13
2023-05-17T06:13:22.937Z,5.97
2023-05-17T06:15:50.348Z,4.47
2023-05-17T06:18:17.699Z,3.88
2023-05-17T06:20:44.863Z,5.53
2023-05-17T06:23:11.938Z,7.65
2023-05-17T06:25:40.633Z,5.43
2023-05-17T06:28:10.343Z,4.72
2023-05-17T06:30:37.722Z,5.97
2023-05-17T06:33:05.106Z,4.18
2023-05-17T06:35:43.728Z,5.25
2023-05-17T06:38:19.289Z,5.20
2023-05-17T06:40:46.489Z,3.75
2023-05-17T06:43:13.591Z,5.88
2023-05-17T06:45:40.849Z,5.93
2023-05-17T06:48:08.104Z,5.10
2023-05-17T06:50:37.589Z,8.10
2023-05-17T06:53:05.579Z,5.47
2023-05-17T06:55:32.891Z,5.07
2023-05-17T06:58:00.659Z,4.70
2023-05-17T07:00:28.869Z,7.03
2023-05-17T07:02:56.702Z,5.40
2023-05-17T07:05:24.735Z,4.22
2023-05-17T07:07:52.369Z,5.93
2023-05-17T07:10:19.541Z,3.58
2023-05-17T07:12:47.281Z,4.47
2023-05-17T07:15:14.444Z,3.42
2023-05-17T07:17:41.609Z,4.63
2023-05-17T07:20:09.483Z,4.03
2023-05-17T07:22:37.591Z,5.75
2023-05-17T07:25:06.152Z,4.68
2023-05-17T07:27:33.833Z,3.30
2023-05-17T07:30:01.944Z,5.72
2023-05-17T07:32:34.130Z,6.15
2023-05-17T07:35:03.247Z,4.32
2023-05-17T07:37:34.383Z,4.68
2023-05-17T07:40:02.240Z,4.07
2023-05-17T07:42:33.771Z,5.75
2023-05-17T07:45:01.191Z,5.10
2023-05-17T07:47:34.240Z,6.47
2023-05-17T07:50:01.638Z,7.03
2023-05-17T07:52:31.765Z,5.38
2023-05-17T07:54:58.891Z,3.75
2023-05-17T07:57:29.902Z,8.82
2023-05-17T07:59:57.254Z,4.82
2023-05-17T08:02:24.429Z,6.18
2023-05-17T08:04:53.130Z,6.72
2023-05-17T08:07:20.335Z,4.80
2023-05-17T08:09:48.499Z,3.85
2023-05-17T08:12:15.608Z,9.18
2023-05-17T08:14:42.904Z,5.10
2023-05-17T08:17:10.243Z,7.32
2023-05-17T08:19:37.584Z,4.30
2023-05-17T08:22:04.940Z,5.72
2023-05-17T08:24:32.079Z,4.93
2023-05-17T08:26:59.160Z,5.53
2023-05-17T08:29:26.446Z,4.65
2023-05-17T08:31:55.270Z,4.63
2023-05-17T08:34:22.603Z,9.55
2023-05-17T08:36:49.961Z,6.32
2023-05-17T08:39:20.212Z,6.25
2023-05-17T08:41:48.525Z,4.85
2023-05-17T08:44:19.562Z,5.20
2023-05-17T08:46:53.931Z,4.57
2023-05-17T08:49:23.614Z,7.47
2023-05-17T08:51:53.383Z,6.15
2023-05-17T08:54:23.364Z,5.75
2023-05-17T08:56:54.415Z,5.93
2023-05-17T08:59:22.810Z,4.55
2023-05-17T09:01:53.571Z,8.02
2023-05-17T09:04:21.893Z,6.22
2023-05-17T09:06:50.857Z,8.30
2023-05-17T09:09:19.043Z,5.93
2023-05-17T09:11:46.370Z,5.85
2023-05-17T09:14:17.404Z,5.53
2023-05-17T09:16:44.680Z,5.13
2023-05-17T09:19:17.709Z,5.47
2023-05-17T09:21:48.246Z,6.53
2023-05-17T09:24:19.050Z,5.45
2023-05-17T09:26:50.425Z,6.28
2023-05-17T09:29:17.667Z,4.13
2023-05-17T09:31:45.056Z,6.40
2023-05-17T09:34:12.418Z,5.75
2023-05-17T09:36:44.088Z,4.22
2023-05-17T09:39:13.872Z,5.47
2023-05-17T09:41:47.930Z,5.90
2023-05-17T09:44:16.953Z,7.38
2023-05-17T09:46:49.021Z,7.05
2023-05-17T09:49:18.082Z,4.70
2023-05-17T09:51:47.734Z,4.80
2023-05-17T09:54:15.565Z,4.10
2023-05-17T09:56:43.330Z,5.00
2023-05-17T09:59:15.446Z,7.05
2023-05-17T10:01:46.006Z,5.95
2023-05-17T10:04:14.393Z,4.95
2023-05-17T10:06:51.457Z,4.45
2023-05-17T10:09:22.545Z,4.82
2023-05-17T10:11:53.235Z,5.63
2023-05-17T10:14:35.124Z,4.60
2023-05-17T10:17:03.553Z,5.85
2023-05-17T10:19:31.499Z,5.65
2023-05-17T10:22:11.055Z,5.03
2023-05-17T10:24:48.159Z,4.32
2023-05-17T10:27:16.400Z,4.90
2023-05-17T10:29:45.888Z,4.05
2023-05-17T10:32:17.095Z,5.13
2023-05-17T10:34:45.822Z,4.35
2023-05-17T10:37:15.385Z,5.65
2023-05-17T10:39:46.902Z,6.40
2023-05-17T10:42:17.232Z,4.88
2023-05-17T10:44:44.481Z,5.78
2023-05-17T10:47:12.332Z,4.95
2023-05-17T10:49:45.237Z,6.60
2023-05-17T10:52:15.766Z,5.70
2023-05-17T10:54:44.673Z,7.28
2023-05-17T10:57:39.057Z,5.65
2023-05-17T11:00:20.997Z,6.00
2023-05-17T11:02:49.193Z,6.90
2023-05-17T11:05:27.604Z,7.07
2023-05-17T11:08:17.900Z,5.97
2023-05-17T11:11:14.236Z,6.40
2023-05-17T11:13:46.518Z,5.28
2023-05-17T11:16:18.071Z,3.97
2023-05-17T11:18:56.263Z,6.22
2023-05-17T11:21:28.337Z,5.07
2023-05-17T11:23:59.054Z,4.18
2023-05-17T11:26:29.490Z,5.03
2023-05-17T11:29:02.444Z,6.00
2023-05-17T11:31:34.869Z,7.65
2023-05-17T11:34:05.924Z,6.20
2023-05-17T11:36:49.708Z,4.72
2023-05-17T11:39:21.709Z,4.55
2023-05-17T11:41:51.052Z,5.07
2023-05-17T11:44:32.131Z,6.50
2023-05-17T11:47:04.179Z,3.92
2023-05-17T11:49:36.417Z,5.32
2023-05-17T11:54:35.511Z,4.20
2023-05-17T11:57:04.509Z,5.63
2023-05-17T11:59:41.641Z,7.13
2023-05-17T12:02:09.574Z,5.00
2023-05-17T12:04:38.296Z,7.38
2023-05-17T12:07:10.621Z,4.65
2023-05-17T12:09:39.474Z,4.75
2023-05-17T12:12:06.780Z,5.57
2023-05-17T12:14:34.169Z,7.07
2023-05-17T12:17:04.068Z,4.93
2023-05-17T12:19:32.723Z,4.35
2023-05-17T12:22:13.873Z,7.32
2023-05-17T12:24:42.837Z,5.43
2023-05-17T12:27:12.918Z,6.03
2023-05-17T12:29:40.271Z,6.75
2023-05-17T12:32:10.363Z,5.55
2023-05-17T12:34:38.598Z,6.63
2023-05-17T12:37:10.921Z,5.53
2023-05-17T12:39:40.000Z,4.85
2023-05-17T12:42:09.566Z,7.72
2023-05-17T12:44:36.896Z,4.68
2023-05-17T12:47:04.220Z,5.43
2023-05-17T12:49:31.342Z,4.65
2023-05-17T12:52:05.397Z,9.23
2023-05-17T12:54:33.315Z,5.60
2023-05-17T12:57:12.568Z,4.85
2023-05-17T12:59:50.796Z,4.80
2023-05-17T13:02:20.526Z,4.70
2023-05-17T13:04:48.043Z,6.10
2023-05-17T13:07:24.914Z,7.13
2023-05-17T13:09:52.677Z,6.63
2023-05-17T13:12:21.818Z,5.72
2023-05-17T13:14:54.917Z,6.28
2023-05-17T13:17:34.244Z,5.82
2023-05-17T13:20:02.418Z,10.35
2023-05-17T13:22:32.462Z,6.93
2023-05-17T13:24:59.458Z,4.47
2023-05-17T13:27:26.487Z,7.13
2023-05-17T13:29:53.720Z,4.22
2023-05-17T13:32:21.306Z,7.55
2023-05-17T13:34:48.597Z,4.32
2023-05-17T13:37:15.638Z,6.53
2023-05-17T13:39:42.825Z,6.13
2023-05-17T13:42:13.226Z,4.40
2023-05-17T13:44:40.880Z,7.35
2023-05-17T13:47:08.418Z,5.47
2023-05-17T13:49:36.298Z,4.20
2023-05-17T13:52:03.882Z,6.72
2023-05-17T13:54:31.263Z,6.63
2023-05-17T13:56:58.432Z,4.35
2023-05-17T13:59:26.324Z,8.02
2023-05-17T14:01:54.037Z,4.88
2023-05-17T14:04:21.524Z,5.07
2023-05-17T14:06:51.134Z,5.07
2023-05-17T14:09:20.495Z,5.88
2023-05-17T14:11:47.679Z,4.85
2023-05-17T14:14:14.967Z,5.93
2023-05-17T14:16:42.135Z,6.43
2023-05-17T14:19:09.272Z,6.55
2023-05-17T14:21:36.637Z,5.85
2023-05-17T14:24:03.906Z,6.72
2023-05-17T14:26:31.061Z,5.82
2023-05-17T14:28:58.099Z,5.85
2023-05-17T14:31:28.360Z,6.28
2023-05-17T14:33:55.966Z,5.47
2023-05-17T14:36:22.965Z,5.15
2023-05-17T14:38:50.073Z,6.72
2023-05-17T14:41:18.666Z,5.93
2023-05-17T14:43:46.322Z,5.97
2023-05-17T14:46:14.920Z,7.85
2023-05-17T14:48:42.079Z,7.22
2023-05-17T14:51:09.462Z,5.72
2023-05-17T14:53:36.770Z,5.55
2023-05-17T14:56:03.985Z,9.55
2023-05-17T14:58:31.132Z,4.82
2023-05-17T15:01:05.557Z,6.07
2023-05-17T15:03:35.543Z,5.40
2023-05-17T15:06:06.940Z,4.63
2023-05-17T15:08:36.061Z,5.65
2023-05-17T15:11:03.547Z,6.85
2023-05-17T15:13:30.674Z,10.23
2023-05-17T15:15:57.686Z,6.55
2023-05-17T15:18:24.957Z,7.40
2023-05-17T15:20:52.130Z,6.20
2023-05-17T15:23:19.124Z,5.60
2023-05-17T15:25:46.655Z,6.80
2023-05-17T15:28:14.278Z,7.72
2023-05-17T15:30:42.270Z,8.95
2023-05-17T15:33:10.052Z,9.65
2023-05-17T15:35:41.542Z,6.28
2023-05-17T15:38:08.744Z,7.55
2023-05-17T15:40:35.948Z,8.70
2023-05-17T15:43:03.063Z,6.70
2023-05-17T15:45:30.362Z,6.00
2023-05-17T15:47:57.930Z,6.40
2023-05-17T15:50:25.264Z,7.57
2023-05-17T15:52:52.618Z,6.43
2023-05-17T15:55:19.754Z,6.00
2023-05-17T15:57:47.735Z,5.63
2023-05-17T16:00:15.148Z,6.90
2023-05-17T16:02:42.246Z,7.93
2023-05-17T16:05:09.751Z,6.15
2023-05-17T16:07:37.099Z,6.95
2023-05-17T16:10:04.458Z,7.55
2023-05-17T16:12:31.717Z,8.82
2023-05-17T16:14:58.991Z,5.70
2023-05-17T16:17:27.398Z,7.78
2023-05-17T16:19:54.681Z,6.05
2023-05-17T16:22:22.191Z,5.65
2023-05-17T16:24:53.835Z,9.10
2023-05-17T16:27:21.980Z,8.20
2023-05-17T16:29:49.689Z,6.93
2023-05-17T16:32:17.138Z,7.90
2023-05-17T16:34:44.826Z,7.25
2023-05-17T16:37:12.083Z,8.23
2023-05-17T16:39:39.544Z,8.82
2023-05-17T16:42:06.824Z,8.85
2023-05-17T16:44:52.951Z,6.70
2023-05-17T16:47:23.928Z,12.15
2023-05-17T16:49:51.064Z,8.13
2023-05-17T16:52:19.167Z,8.88
2023-05-17T16:54:46.624Z,6.25
2023-05-17T16:57:15.065Z,7.75
2023-05-17T16:59:42.435Z,7.45
2023-05-17T17:02:09.812Z,10.63
2023-05-17T17:04:36.966Z,8.00
2023-05-17T17:07:04.476Z,8.45
2023-05-17T17:09:31.793Z,9.93
2023-05-17T17:11:59.402Z,8.95
2023-05-17T17:14:27.502Z,10.20
2023-05-17T17:16:54.744Z,10.63
2023-05-17T17:19:21.974Z,8.45
2023-05-17T17:21:49.336Z,8.52
2023-05-17T17:24:16.458Z,9.00
2023-05-17T17:26:44.059Z,7.60
2023-05-17T17:29:11.252Z,10.18
2023-05-17T17:31:38.535Z,7.85
2023-05-17T17:34:05.712Z,9.23
2023-05-17T17:36:32.841Z,8.18
2023-05-17T17:38:59.883Z,8.85
2023-05-17T17:41:27.114Z,10.05
2023-05-17T17:44:09.153Z,9.70
2023-05-17T17:46:36.644Z,9.23
2023-05-17T17:49:04.032Z,8.65
2023-05-17T17:51:31.529Z,9.15
2023-05-17T17:53:58.644Z,9.38
2023-05-17T17:56:26.333Z,8.05
2023-05-17T17:58:56.430Z,10.75
2023-05-17T18:01:23.729Z,9.88
2023-05-17T18:03:50.884Z,10.18
2023-05-17T18:06:19.553Z,9.57
2023-05-17T18:08:46.904Z,12.52
2023-05-17T18:11:14.211Z,9.63
2023-05-17T18:13:41.384Z,8.50
2023-05-17T18:16:08.754Z,9.48
2023-05-17T18:18:37.545Z,9.02
2023-05-17T18:21:04.736Z,8.25
2023-05-17T18:23:31.782Z,9.40
2023-05-17T18:25:59.153Z,8.15
2023-05-17T18:28:38.046Z,10.25
2023-05-17T18:31:09.321Z,10.80
2023-05-17T18:33:36.523Z,9.50
2023-05-17T18:36:03.879Z,9.73
2023-05-17T18:38:31.037Z,10.25
2023-05-17T18:40:58.092Z,10.77
2023-05-17T18:43:25.540Z,9.57
2023-05-17T18:45:52.569Z,7.70
2023-05-17T18:48:22.214Z,10.15
2023-05-17T18:50:49.596Z,10.30
2023-05-17T18:53:16.890Z,10.10
2023-05-17T18:55:44.044Z,11.02
2023-05-17T18:58:11.302Z,10.40
2023-05-17T19:00:38.436Z,14.65
2023-05-17T19:03:05.543Z,9.93
2023-05-17T19:05:32.827Z,10.80
2023-05-17T19:08:00.088Z,10.75
2023-05-17T19:10:27.644Z,8.73
2023-05-17T19:12:54.859Z,8.82
2023-05-17T19:15:22.052Z,15.05
2023-05-17T19:17:49.338Z,9.77
2023-05-17T19:20:16.786Z,9.45
2023-05-17T19:22:43.775Z,12.48
2023-05-17T19:25:10.913Z,11.02
2023-05-17T19:27:38.185Z,8.52
2023-05-17T19:30:05.557Z,9.70
2023-05-17T19:32:33.317Z,8.35
2023-05-17T19:35:01.648Z,8.60
2023-05-17T19:37:32.011Z,9.95
2023-05-17T19:39:59.276Z,11.82
2023-05-17T19:42:26.808Z,10.10
2023-05-17T19:44:54.195Z,11.93
2023-05-17T19:47:21.388Z,10.05
2023-05-17T19:49:48.871Z,10.07
2023-05-17T19:52:16.031Z,11.27
2023-05-17T19:54:43.158Z,9.50
2023-05-17T19:57:10.910Z,10.55
2023-05-17T19:59:39.476Z,11.73
2023-05-17T20:02:07.074Z,10.25
2023-05-17T20:04:34.384Z,9.73
2023-05-17T20:07:01.619Z,10.50
2023-05-17T20:09:30.443Z,10.50
2023-05-17T20:11:58.032Z,10.25
2023-05-17T20:14:26.628Z,11.15
2023-05-17T20:16:54.504Z,10.68
2023-05-17T20:19:21.865Z,13.45
2023-05-17T20:21:49.136Z,11.13
2023-05-17T20:24:16.434Z,9.55
2023-05-17T20:26:46.695Z,12.23
2023-05-17T20:29:13.754Z,10.77
2023-05-17T20:31:41.129Z,11.88
2023-05-17T20:34:08.268Z,10.93
2023-05-17T20:36:35.340Z,9.27
2023-05-17T20:39:02.346Z,8.93
2023-05-17T20:41:29.611Z,9.38
2023-05-17T20:43:56.775Z,11.10
2023-05-17T20:46:24.188Z,13.00
2023-05-17T20:48:53.827Z,11.35
2023-05-17T20:51:22.491Z,10.50
2023-05-17T20:53:49.661Z,10.77
2023-05-17T20:56:19.446Z,9.13
2023-05-17T20:58:47.958Z,8.55
2023-05-17T21:01:15.141Z,9.85
2023-05-17T21:03:43.544Z,11.68
2023-05-17T21:06:11.107Z,10.25
2023-05-17T21:08:38.807Z,18.63
2023-05-17T21:11:06.011Z,13.50
2023-05-17T21:13:33.279Z,11.70
2023-05-17T21:16:00.958Z,11.07
2023-05-17T21:18:28.152Z,13.65
2023-05-17T21:20:55.621Z,14.90
2023-05-17T21:23:22.719Z,9.10
2023-05-17T21:25:49.922Z,12.30
2023-05-17T21:28:17.358Z,9.82
2023-05-17T21:30:44.411Z,10.32
2023-05-17T21:33:11.985Z,9.93
2023-05-17T21:35:39.156Z,12.77
2023-05-17T21:38:06.408Z,9.23
2023-05-17T21:40:33.757Z,10.27
2023-05-17T21:43:01.417Z,9.50
2023-05-17T21:45:28.747Z,9.75
2023-05-17T21:47:55.979Z,9.25
2023-05-17T21:50:23.180Z,10.20
2023-05-17T21:52:50.583Z,10.70
2023-05-17T21:55:17.955Z,10.80
2023-05-17T21:57:45.031Z,11.27
2023-05-17T22:00:15.529Z,11.23
2023-05-17T22:02:46.750Z,11.65
2023-05-17T22:05:14.155Z,10.25
2023-05-17T22:07:41.262Z,14.45
2023-05-17T22:10:09.940Z,14.70
2023-05-17T22:12:38.492Z,11.55
2023-05-17T22:15:06.436Z,10.85
2023-05-17T22:17:47.883Z,12.25
2023-05-17T22:20:22.972Z,12.35
2023-05-17T22:22:50.163Z,12.48
2023-05-17T22:25:17.824Z,10.82
2023-05-17T22:27:45.815Z,15.40
2023-05-17T22:30:13.356Z,10.40
2023-05-17T22:32:40.864Z,11.38
2023-05-17T22:35:08.356Z,11.00
2023-05-17T22:37:36.617Z,11.55
2023-05-17T22:40:06.430Z,12.32
2023-05-17T22:42:33.329Z,12.77
2023-05-17T22:45:00.774Z,13.45
2023-05-17T22:47:27.918Z,12.00
2023-05-17T22:49:55.054Z,14.75
2023-05-17T22:52:22.671Z,11.13
2023-05-17T22:54:49.704Z,11.15
2023-05-17T22:57:17.193Z,11.40
2023-05-17T22:59:44.267Z,9.77
2023-05-17T23:02:14.416Z,14.20
2023-05-17T23:04:42.010Z,11.20
2023-05-17T23:07:10.202Z,14.57
2023-05-17T23:09:40.978Z,11.57
2023-05-17T23:12:14.131Z,15.40
2023-05-17T23:14:42.598Z,11.90
2023-05-17T23:17:10.050Z,15.32
2023-05-17T23:19:37.581Z,10.07
2023-05-17T23:22:06.464Z,12.75
2023-05-17T23:24:38.937Z,13.77
2023-05-17T23:27:10.354Z,10.93
2023-05-17T23:29:37.999Z,10.60
2023-05-17T23:32:05.357Z,14.43
2023-05-17T23:34:32.725Z,11.50
2023-05-17T23:36:59.906Z,13.07
2023-05-17T23:39:27.065Z,12.48
2023-05-17T23:41:54.254Z,10.52
2023-05-17T23:44:21.480Z,9.75
2023-05-17T23:46:48.510Z,10.73
2023-05-17T23:49:16.690Z,11.50
2023-05-17T23:51:44.047Z,13.13
2023-05-17T23:54:12.410Z,10.05
2023-05-17T23:56:39.729Z,10.63
2023-05-17T23:59:06.842Z,10.77
